createdAt,value
2023-05-12T00:02:11.610Z,98414.09
2023-05-12T00:04:38.671Z,98408.19
2023-05-12T00:07:06.904Z,98405.00
2023-05-12T00:09:33.249Z,98412.19
2023-05-12T00:11:59.580Z,98410.59
2023-05-12T00:14:25.897Z,98412.44
2023-05-12T00:16:52.541Z,98408.19
2023-05-12T00:19:19.972Z,98405.78
2023-05-12T00:21:46.415Z,98400.44
2023-05-12T00:24:12.734Z,98403.38
2023-05-12T00:26:39.215Z,98412.19
2023-05-12T00:29:05.600Z,98405.25
2023-05-12T00:31:31.979Z,98411.63
2023-05-12T00:33:58.403Z,98405.50
2023-05-12T00:36:24.754Z,98407.38
2023-05-12T00:38:51.098Z,98418.03
2023-05-12T00:41:17.418Z,98417.22
2023-05-12T00:43:43.739Z,98413.75
2023-05-12T00:46:10.185Z,98420.69
2023-05-12T00:48:36.559Z,98411.09
2023-05-12T00:51:03.079Z,98411.09
2023-05-12T00:53:41.038Z,98416.44
2023-05-12T00:56:16.733Z,98412.16
2023-05-12T00:58:43.068Z,98412.16
2023-05-12T01:01:09.459Z,98411.59
2023-05-12T01:03:35.878Z,98416.69
2023-05-12T01:06:20.869Z,98418.81
2023-05-12T01:08:47.176Z,98420.94
2023-05-12T01:11:13.493Z,98420.94
2023-05-12T01:13:41.132Z,98416.66
2023-05-12T01:16:07.766Z,98414.53
2023-05-12T01:18:34.162Z,98418.00
2023-05-12T01:21:00.681Z,98428.66
2023-05-12T01:23:27.599Z,98421.72
2023-05-12T01:25:53.966Z,98422.75
2023-05-12T01:28:20.318Z,98424.63
2023-05-12T01:30:46.657Z,98428.09
2023-05-12T01:33:13.073Z,98419.28
2023-05-12T01:35:39.399Z,98430.22
2023-05-12T01:38:05.740Z,98417.97
2023-05-12T01:40:32.045Z,98419.56
2023-05-12T01:42:58.800Z,98421.44
2023-05-12T01:45:25.129Z,98417.97
2023-05-12T01:47:51.524Z,98419.56
2023-05-12T01:50:18.055Z,98427.56
2023-05-12T01:52:45.685Z,98432.09
2023-05-12T01:55:12.002Z,98426.75
2023-05-12T01:57:38.343Z,98428.88
2023-05-12T02:00:04.911Z,98429.69
2023-05-12T02:02:33.787Z,98435.03
2023-05-12T02:05:00.246Z,98434.19
2023-05-12T02:07:26.568Z,98432.34
2023-05-12T02:09:53.109Z,98435.81
2023-05-12T02:12:19.426Z,98432.88
2023-05-12T02:14:45.777Z,98435.81
2023-05-12T02:17:12.144Z,98436.84
2023-05-12T02:19:38.479Z,98434.47
2023-05-12T02:22:04.798Z,98433.66
2023-05-12T02:24:31.116Z,98434.47
2023-05-12T02:26:57.417Z,98437.94
2023-05-12T02:29:23.736Z,98436.31
2023-05-12T02:31:50.092Z,98435.53
2023-05-12T02:34:16.453Z,98444.31
2023-05-12T02:36:42.858Z,98440.06
2023-05-12T02:39:09.266Z,98442.72
2023-05-12T02:41:35.571Z,98435.00
2023-05-12T02:44:01.972Z,98435.53
2023-05-12T02:46:28.445Z,98437.13
2023-05-12T02:49:02.049Z,98431.81
2023-05-12T02:51:28.410Z,98430.19
2023-05-12T02:53:54.748Z,98430.72
2023-05-12T02:56:21.362Z,98429.94
2023-05-12T02:58:47.796Z,98432.06
2023-05-12T03:01:14.553Z,98432.06
2023-05-12T03:03:41.297Z,98428.88
2023-05-12T03:06:07.770Z,98438.72
2023-05-12T03:08:34.080Z,98439.00
2023-05-12T03:11:00.398Z,98433.41
2023-05-12T03:13:26.709Z,98438.50
2023-05-12T03:15:53.443Z,98441.16
2023-05-12T03:18:20.155Z,98439.00
2023-05-12T03:20:46.948Z,98442.25
2023-05-12T03:23:13.358Z,98445.69
2023-05-12T03:25:39.687Z,98444.06
2023-05-12T03:28:06.010Z,98437.16
2023-05-12T03:30:33.209Z,98432.34
2023-05-12T03:32:59.602Z,98437.13
2023-05-12T03:35:25.926Z,98438.72
2023-05-12T03:37:52.277Z,98437.69
2023-05-12T03:40:19.107Z,98437.69
2023-05-12T03:42:45.792Z,98449.16
2023-05-12T03:45:12.425Z,98441.38
2023-05-12T03:47:40.543Z,98438.19
2023-05-12T03:50:07.845Z,98440.06
2023-05-12T03:52:34.324Z,98435.53
2023-05-12T03:55:00.654Z,98439.00
2023-05-12T03:57:26.993Z,98427.53
2023-05-12T03:59:53.580Z,98438.19
2023-05-12T04:02:19.990Z,98435.81
2023-05-12T04:04:46.322Z,98443.78
2023-05-12T04:07:12.662Z,98443.78
2023-05-12T04:09:39.001Z,98439.25
2023-05-12T04:12:06.225Z,98448.06
2023-05-12T04:14:42.094Z,98451.00
2023-05-12T04:17:09.359Z,98456.31
2023-05-12T04:19:35.680Z,98459.97
2023-05-12T04:22:02.009Z,98459.19
2023-05-12T04:24:28.360Z,98461.06
2023-05-12T04:26:54.715Z,98464.78
2023-05-12T04:29:21.260Z,98463.97
2023-05-12T04:31:47.626Z,98465.06
2023-05-12T04:34:14.015Z,98468.25
2023-05-12T04:36:40.336Z,98476.75
2023-05-12T04:39:06.645Z,98474.16
2023-05-12T04:41:33.065Z,98478.72
2023-05-12T04:44:00.783Z,98481.94
2023-05-12T04:46:27.331Z,98484.91
2023-05-12T04:48:53.700Z,98483.81
2023-05-12T04:51:20.044Z,98489.16
2023-05-12T04:53:46.581Z,98483.28
2023-05-12T04:56:13.173Z,98488.06
2023-05-12T04:58:39.519Z,98484.59
2023-05-12T05:01:06.608Z,98493.41
2023-05-12T05:03:33.044Z,98494.19
2023-05-12T05:05:59.464Z,98505.91
2023-05-12T05:08:25.787Z,98506.72
2023-05-12T05:10:52.090Z,98513.66
2023-05-12T05:13:18.401Z,98509.38
2023-05-12T05:15:51.289Z,98513.91
2023-05-12T05:18:17.910Z,98501.38
2023-05-12T05:20:45.757Z,98508.84
2023-05-12T05:23:20.534Z,98512.56
2023-05-12T05:25:46.871Z,98512.03
2023-05-12T05:28:13.260Z,98512.81
2023-05-12T05:30:39.595Z,98512.03
2023-05-12T05:33:06.022Z,98517.09
2023-05-12T05:35:32.378Z,98527.75
2023-05-12T05:37:58.711Z,98526.41
2023-05-12T05:40:25.088Z,98530.09
2023-05-12T05:42:51.396Z,98534.41
2023-05-12T05:45:18.126Z,98539.72
2023-05-12T05:47:44.728Z,98539.72
2023-05-12T05:50:11.213Z,98536.81
2023-05-12T05:52:37.655Z,98542.13
2023-05-12T05:55:04.060Z,98547.47
2023-05-12T05:57:30.431Z,98548.25
2023-05-12T05:59:56.748Z,98553.31
2023-05-12T06:02:23.542Z,98547.19
2023-05-12T06:04:50.055Z,98556.56
2023-05-12T06:07:16.438Z,98560.31
2023-05-12T06:09:42.756Z,98559.22
2023-05-12T06:12:09.076Z,98563.75
2023-05-12T06:14:35.399Z,98562.97
2023-05-12T06:17:01.825Z,98563.81
2023-05-12T06:19:28.167Z,98564.38
2023-05-12T06:21:54.500Z,98570.00
2023-05-12T06:24:20.805Z,98564.66
2023-05-12T06:26:47.136Z,98575.63
2023-05-12T06:29:13.473Z,98571.88
2023-05-12T06:31:39.863Z,98569.22
2023-05-12T06:34:06.266Z,98569.78
2023-05-12T06:36:33.365Z,98570.03
2023-05-12T06:38:59.738Z,98563.91
2023-05-12T06:41:26.207Z,98573.47
2023-05-12T06:43:52.594Z,98580.16
2023-05-12T06:46:19.020Z,98574.81
2023-05-12T06:48:45.378Z,98579.88
2023-05-12T06:51:11.927Z,98574.56
2023-05-12T06:53:38.274Z,98574.81
2023-05-12T06:56:04.985Z,98571.34
2023-05-12T06:58:31.299Z,98578.00
2023-05-12T07:00:57.610Z,98575.63
2023-05-12T07:03:24.001Z,98572.16
2023-05-12T07:05:50.384Z,98575.63
2023-05-12T07:08:17.154Z,98573.75
2023-05-12T07:10:43.500Z,98571.66
2023-05-12T07:13:09.808Z,98579.66
2023-05-12T07:15:36.396Z,98573.22
2023-05-12T07:18:02.762Z,98571.31
2023-05-12T07:20:29.134Z,98570.00
2023-05-12T07:22:56.486Z,98565.47
2023-05-12T07:25:23.133Z,98566.25
2023-05-12T07:27:50.437Z,98572.13
2023-05-12T07:30:17.132Z,98572.16
2023-05-12T07:32:43.745Z,98566.84
2023-05-12T07:35:11.880Z,98569.00
2023-05-12T07:37:38.364Z,98568.47
2023-05-12T07:40:04.872Z,98568.22
2023-05-12T07:42:31.277Z,98565.28
2023-05-12T07:44:57.593Z,98570.38
2023-05-12T07:47:23.931Z,98564.22
2023-05-12T07:49:50.235Z,98567.69
2023-05-12T07:52:16.619Z,98567.69
2023-05-12T07:54:42.942Z,98561.28
2023-05-12T07:57:09.248Z,98566.38
2023-05-12T07:59:35.698Z,98568.50
2023-05-12T08:02:02.832Z,98566.13
2023-05-12T08:04:29.265Z,98557.91
2023-05-12T08:06:55.694Z,98573.66
2023-05-12T08:09:22.024Z,98570.47
2023-05-12T08:11:51.436Z,98568.06
2023-05-12T08:14:18.182Z,98563.28
2023-05-12T08:16:46.348Z,98566.53
2023-05-12T08:19:12.953Z,98568.41
2023-05-12T08:21:39.395Z,98567.09
2023-05-12T08:24:05.739Z,98571.09
2023-05-12T08:26:35.036Z,98575.13
2023-05-12T08:29:01.649Z,98571.09
2023-05-12T08:31:27.967Z,98579.09
2023-05-12T08:34:08.647Z,98578.06
2023-05-12T08:36:36.463Z,98578.88
2023-05-12T08:39:02.792Z,98583.66
2023-05-12T08:41:36.713Z,98580.75
2023-05-12T08:44:03.224Z,98582.34
2023-05-12T08:46:31.394Z,98583.69
2023-05-12T08:48:57.749Z,98581.84
2023-05-12T08:51:24.073Z,98582.06
2023-05-12T08:53:50.390Z,98579.97
2023-05-12T08:58:47.096Z,98594.63
2023-05-12T09:01:14.758Z,98585.31
2023-05-12T09:03:41.438Z,98578.34
2023-05-12T09:06:08.142Z,98582.09
2023-05-12T09:08:35.079Z,98580.22
2023-05-12T09:11:01.828Z,98582.13
2023-05-12T09:13:51.473Z,98580.53
2023-05-12T09:16:21.853Z,98588.53
2023-05-12T09:18:57.789Z,98586.94
2023-05-12T09:21:24.203Z,98591.50
2023-05-12T09:24:06.808Z,98592.28
2023-05-12T09:26:44.289Z,98590.97
2023-05-12T09:29:15.766Z,98581.91
2023-05-12T09:31:53.710Z,98588.03
2023-05-12T09:34:21.957Z,98593.94
2023-05-12T09:36:58.094Z,98587.53
2023-05-12T09:39:24.552Z,98585.38
2023-05-12T09:41:52.365Z,98595.25
2023-05-12T09:44:18.758Z,98589.63
2023-05-12T09:46:45.098Z,98592.88
2023-05-12T09:49:11.827Z,98594.75
2023-05-12T09:51:38.455Z,98591.78
2023-05-12T09:54:06.457Z,98595.25
2023-05-12T09:56:35.177Z,98598.72
2023-05-12T09:59:01.579Z,98602.47
2023-05-12T10:01:28.258Z,98596.84
2023-05-12T10:03:55.648Z,98594.47
2023-05-12T10:06:28.376Z,98595.03
2023-05-12T10:08:57.703Z,98605.94
2023-05-12T10:11:24.144Z,98600.88
2023-05-12T10:13:50.521Z,98604.63
2023-05-12T10:16:16.918Z,98601.91
2023-05-12T10:18:44.634Z,98607.28
2023-05-12T10:21:12.046Z,98603.78
2023-05-12T10:23:39.475Z,98602.19
2023-05-12T10:26:06.334Z,98615.53
2023-05-12T10:28:32.648Z,98609.69
2023-05-12T10:30:59.035Z,98612.06
2023-05-12T10:33:25.630Z,98605.41
2023-05-12T10:35:52.300Z,98615.53
2023-05-12T10:38:21.498Z,98610.47
2023-05-12T10:40:53.864Z,98605.41
2023-05-12T10:43:24.064Z,98612.88
2023-05-12T10:46:05.845Z,98608.31
2023-05-12T10:48:32.212Z,98606.19
2023-05-12T10:51:05.711Z,98607.28
2023-05-12T10:53:48.281Z,98604.06
2023-05-12T10:56:24.519Z,98603.25
2023-05-12T10:59:10.223Z,98607.00
2023-05-12T11:01:38.013Z,98606.72
2023-05-12T11:04:14.608Z,98607.00
2023-05-12T11:06:41.389Z,98609.94
2023-05-12T11:09:09.068Z,98606.75
2023-05-12T11:11:36.247Z,98615.81
2023-05-12T11:14:02.924Z,98607.28
2023-05-12T11:16:29.332Z,98613.16
2023-05-12T11:19:02.816Z,98605.66
2023-05-12T11:21:30.392Z,98609.16
2023-05-12T11:23:57.004Z,98608.34
2023-05-12T11:26:23.346Z,98615.03
2023-05-12T11:28:49.659Z,98614.22
2023-05-12T11:31:21.752Z,98611.00
2023-05-12T11:33:50.440Z,98613.69
2023-05-12T11:36:21.775Z,98617.97
2023-05-12T11:38:48.645Z,98616.09
2023-05-12T11:41:15.076Z,98616.34
2023-05-12T11:43:41.393Z,98634.78
2023-05-12T11:46:07.755Z,98629.19
2023-05-12T11:48:37.135Z,98629.72
2023-05-12T11:51:03.495Z,98616.63
2023-05-12T11:53:29.815Z,98624.00
2023-05-12T11:55:56.373Z,98614.59
2023-05-12T11:58:25.501Z,98626.91
2023-05-12T12:00:52.110Z,98629.00
2023-05-12T12:03:18.573Z,98628.03
2023-05-12T12:05:45.410Z,98636.34
2023-05-12T12:08:14.943Z,98626.75
2023-05-12T12:10:44.909Z,98630.72
2023-05-12T12:13:11.495Z,98631.00
2023-05-12T12:15:37.875Z,98616.88
2023-05-12T12:18:04.583Z,98632.91
2023-05-12T12:20:31.123Z,98634.53
2023-05-12T12:22:57.459Z,98633.22
2023-05-12T12:25:23.779Z,98628.09
2023-05-12T12:27:50.188Z,98630.25
2023-05-12T12:30:17.017Z,98635.59
2023-05-12T12:32:44.228Z,98624.91
2023-05-12T12:35:11.469Z,98626.53
2023-05-12T12:37:37.999Z,98638.78
2023-05-12T12:40:08.162Z,98628.91
2023-05-12T12:42:35.901Z,98637.75
2023-05-12T12:45:03.542Z,98631.59
2023-05-12T12:47:29.937Z,98617.44
2023-05-12T12:49:56.380Z,98628.91
2023-05-12T12:52:22.709Z,98627.06
2023-05-12T12:54:49.041Z,98621.72
2023-05-12T12:57:15.388Z,98613.16
2023-05-12T12:59:41.720Z,98613.97
2023-05-12T13:02:08.052Z,98621.97
2023-05-12T13:04:34.767Z,98618.50
2023-05-12T13:07:01.095Z,98621.97
2023-05-12T13:09:27.848Z,98607.31
2023-05-12T13:11:54.268Z,98609.69
2023-05-12T13:14:21.500Z,98617.97
2023-05-12T13:16:47.866Z,98619.06
2023-05-12T13:19:14.324Z,98624.41
2023-05-12T13:21:40.704Z,98618.22
2023-05-12T13:24:07.052Z,98605.69
2023-05-12T13:26:33.457Z,98629.16
2023-05-12T13:28:59.809Z,98631.84
2023-05-12T13:31:26.315Z,98628.09
2023-05-12T13:33:52.714Z,98621.16
2023-05-12T13:36:19.026Z,98621.97
2023-05-12T13:38:48.033Z,98612.34
2023-05-12T13:41:14.392Z,98612.63
2023-05-12T13:43:40.731Z,98614.72
2023-05-12T13:46:07.485Z,98618.47
2023-05-12T13:48:33.979Z,98621.38
2023-05-12T13:51:00.320Z,98623.00
2023-05-12T13:53:26.629Z,98623.25
2023-05-12T13:55:53.050Z,98622.44
2023-05-12T13:58:19.385Z,98621.91
2023-05-12T14:00:47.886Z,98615.75
2023-05-12T14:03:14.336Z,98618.44
2023-05-12T14:05:40.843Z,98619.47
2023-05-12T14:08:07.196Z,98619.47
2023-05-12T14:10:35.368Z,98617.88
2023-05-12T14:13:02.068Z,98612.25
2023-05-12T14:15:44.202Z,98612.81
2023-05-12T14:18:15.479Z,98612.53
2023-05-12T14:20:41.813Z,98612.81
2023-05-12T14:23:08.124Z,98620.56
2023-05-12T14:25:34.590Z,98620.81
2023-05-12T14:28:00.987Z,98629.13
2023-05-12T14:30:27.361Z,98630.16
2023-05-12T14:32:54.315Z,98621.06
2023-05-12T14:35:20.928Z,98626.94
2023-05-12T14:37:47.430Z,98629.59
2023-05-12T14:40:14.029Z,98621.56
2023-05-12T14:42:40.408Z,98615.16
2023-05-12T14:45:06.872Z,98634.63
2023-05-12T14:47:33.264Z,98624.75
2023-05-12T14:49:59.619Z,98622.66
2023-05-12T14:52:25.958Z,98615.69
2023-05-12T14:54:52.277Z,98614.88
2023-05-12T14:57:18.616Z,98615.97
2023-05-12T14:59:44.924Z,98615.66
2023-05-12T15:02:11.507Z,98618.34
2023-05-12T15:04:37.928Z,98618.09
2023-05-12T15:07:05.037Z,98622.88
2023-05-12T15:09:31.360Z,98626.34
2023-05-12T15:11:57.690Z,98625.53
2023-05-12T15:16:52.351Z,98622.56
2023-05-12T15:19:20.482Z,98622.06
2023-05-12T15:21:46.868Z,98616.47
2023-05-12T15:24:13.198Z,98623.97
2023-05-12T15:26:40.312Z,98629.59
2023-05-12T15:29:07.304Z,98623.19
2023-05-12T15:31:33.724Z,98629.28
2023-05-12T15:34:00.536Z,98622.66
2023-05-12T15:36:26.879Z,98628.22
2023-05-12T15:38:53.505Z,98630.09
2023-05-12T15:41:19.822Z,98626.91
2023-05-12T15:43:46.143Z,98623.66
2023-05-12T15:46:12.488Z,98630.38
2023-05-12T15:48:39.388Z,98625.81
2023-05-12T15:51:06.035Z,98623.16
2023-05-12T15:53:32.594Z,98623.66
2023-05-12T15:56:02.139Z,98631.69
2023-05-12T15:58:28.607Z,98634.34
2023-05-12T16:00:55.073Z,98629.81
2023-05-12T16:03:21.518Z,98622.88
2023-05-12T16:05:48.341Z,98618.34
2023-05-12T16:08:14.679Z,98623.66
2023-05-12T16:10:41.001Z,98622.06
2023-05-12T16:13:07.323Z,98622.88
2023-05-12T16:15:33.684Z,98613.25
2023-05-12T16:18:00.032Z,98610.59
2023-05-12T16:20:26.410Z,98612.47
2023-05-12T16:22:53.419Z,98614.34
2023-05-12T16:25:20.277Z,98617.00
2023-05-12T16:27:46.747Z,98620.72
2023-05-12T16:30:13.288Z,98616.72
2023-05-12T16:32:42.990Z,98618.59
2023-05-12T16:35:09.727Z,98616.72
2023-05-12T16:37:36.034Z,98620.97
2023-05-12T16:40:02.398Z,98623.91
2023-05-12T16:42:28.780Z,98613.53
2023-05-12T16:44:55.116Z,98616.19
2023-05-12T16:47:21.489Z,98622.03
2023-05-12T16:49:47.853Z,98620.44
2023-05-12T16:52:14.772Z,98623.09
2023-05-12T16:54:42.148Z,98616.13
2023-05-12T16:57:08.765Z,98617.22
2023-05-12T16:59:36.307Z,98620.66
2023-05-12T17:02:02.708Z,98628.69
2023-05-12T17:04:29.068Z,98638.53
2023-05-12T17:06:55.368Z,98632.66
2023-05-12T17:09:23.066Z,98634.28
2023-05-12T17:11:49.575Z,98629.19
2023-05-12T17:14:17.906Z,98631.59
2023-05-12T17:16:45.571Z,98625.72
2023-05-12T17:19:14.932Z,98632.09
2023-05-12T17:21:41.900Z,98629.69
2023-05-12T17:24:08.395Z,98631.28
2023-05-12T17:26:35.072Z,98635.81
2023-05-12T17:29:01.963Z,98631.28
2023-05-12T17:31:28.333Z,98638.75
2023-05-12T17:33:54.947Z,98640.63
2023-05-12T17:36:21.369Z,98631.81
2023-05-12T17:38:47.781Z,98640.88
2023-05-12T17:41:14.288Z,98640.88
2023-05-12T17:43:41.369Z,98644.59
2023-05-12T17:46:09.008Z,98648.06
2023-05-12T17:48:35.781Z,98645.66
2023-05-12T17:51:03.064Z,98649.41
2023-05-12T17:53:29.634Z,98650.44
2023-05-12T17:55:56.028Z,98654.16
2023-05-12T17:58:22.354Z,98650.97
2023-05-12T18:00:49.027Z,98657.09
2023-05-12T18:03:15.691Z,98653.09
2023-05-12T18:05:42.127Z,98663.25
2023-05-12T18:08:08.779Z,98654.16
2023-05-12T18:10:35.905Z,98662.72
2023-05-12T18:13:02.384Z,98666.19
2023-05-12T18:15:30.044Z,98668.84
2023-05-12T18:17:57.871Z,98666.19
2023-05-12T18:20:24.393Z,98669.91
2023-05-12T18:22:51.719Z,98671.75
2023-05-12T18:25:22.730Z,98667.47
2023-05-12T18:27:55.450Z,98673.63
2023-05-12T18:30:23.730Z,98669.34
2023-05-12T18:32:58.681Z,98672.00
2023-05-12T18:35:27.192Z,98670.41
2023-05-12T18:37:54.974Z,98676.53
2023-05-12T18:40:21.449Z,98678.41
2023-05-12T18:42:48.386Z,98674.94
2023-05-12T18:45:15.684Z,98682.94
2023-05-12T18:47:43.778Z,98681.06
2023-05-12T18:50:11.291Z,98691.47
2023-05-12T18:52:37.636Z,98694.94
2023-05-12T18:55:04.116Z,98684.28
2023-05-12T18:57:30.520Z,98688.47
2023-05-12T18:59:56.868Z,98692.25
2023-05-12T19:02:23.357Z,98692.81
2023-05-12T19:04:51.425Z,98688.28
2023-05-12T19:07:20.701Z,98693.34
2023-05-12T19:09:49.681Z,98692.28
2023-05-12T19:12:19.772Z,98702.94
2023-05-12T19:14:46.564Z,98706.69
2023-05-12T19:17:13.683Z,98700.53
2023-05-12T19:19:40.034Z,98706.94
2023-05-12T19:22:06.719Z,98714.94
2023-05-12T19:24:35.677Z,98712.28
2023-05-12T19:27:04.329Z,98712.50
2023-05-12T19:29:32.147Z,98720.47
2023-05-12T19:32:00.951Z,98714.13
2023-05-12T19:34:28.299Z,98714.91
2023-05-12T19:37:00.308Z,98716.78
2023-05-12T19:39:27.356Z,98715.72
2023-05-12T19:41:53.687Z,98725.56
2023-05-12T19:44:20.248Z,98725.81
2023-05-12T19:46:49.613Z,98723.16
2023-05-12T19:49:16.947Z,98725.81
2023-05-12T19:51:43.609Z,98723.16
2023-05-12T19:54:12.538Z,98728.47
2023-05-12T19:56:39.242Z,98733.00
2023-05-12T19:59:05.557Z,98736.47
2023-05-12T20:01:34.889Z,98733.00
2023-05-12T20:04:02.611Z,98729.81
2023-05-12T20:06:28.937Z,98730.59
2023-05-12T20:08:55.753Z,98735.94
2023-05-12T20:11:22.104Z,98738.88
2023-05-12T20:13:50.746Z,98738.03
2023-05-12T20:16:17.066Z,98746.03
2023-05-12T20:18:44.023Z,98746.03
2023-05-12T20:21:13.042Z,98740.97
2023-05-12T20:23:39.347Z,98745.50
2023-05-12T20:26:08.684Z,98750.84
2023-05-12T20:28:35.323Z,98749.22
2023-05-12T20:31:01.778Z,98745.78
2023-05-12T20:33:30.517Z,98747.88
2023-05-12T20:35:56.922Z,98745.72
2023-05-12T20:38:24.944Z,98752.09
2023-05-12T20:40:52.620Z,98752.09
2023-05-12T20:43:19.032Z,98750.25
2023-05-12T20:45:45.815Z,98747.34
2023-05-12T20:48:12.561Z,98753.97
2023-05-12T20:50:40.045Z,98749.16
2023-05-12T20:53:07.845Z,98753.69
2023-05-12T20:55:34.816Z,98744.06
2023-05-12T20:58:05.800Z,98750.75
2023-05-12T21:00:33.248Z,98744.38
2023-05-12T21:03:00.470Z,98760.09
2023-05-12T21:05:27.865Z,98746.22
2023-05-12T21:07:54.978Z,98756.88
2023-05-12T21:10:25.124Z,98754.22
2023-05-12T21:12:56.586Z,98752.34
2023-05-12T21:15:24.291Z,98764.88
2023-05-12T21:17:53.834Z,98764.09
2023-05-12T21:20:20.489Z,98761.41
2023-05-12T21:22:48.166Z,98766.75
2023-05-12T21:25:15.536Z,98758.19
2023-05-12T21:27:42.209Z,98759.81
2023-05-12T21:30:11.663Z,98761.91
2023-05-12T21:32:40.944Z,98767.25
2023-05-12T21:35:16.233Z,98776.03
2023-05-12T21:37:43.865Z,98776.31
2023-05-12T21:40:10.629Z,98766.72
2023-05-12T21:42:38.371Z,98772.84
2023-05-12T21:45:05.186Z,98770.97
2023-05-12T21:47:33.684Z,98767.78
2023-05-12T21:50:01.307Z,98770.19
2023-05-12T21:52:32.089Z,98764.28
2023-05-12T21:55:01.293Z,98763.75
2023-05-12T21:57:37.534Z,98774.13
2023-05-12T22:00:05.365Z,98766.13
2023-05-12T22:02:33.515Z,98770.44
2023-05-12T22:05:03.921Z,98770.44
2023-05-12T22:07:31.083Z,98773.34
2023-05-12T22:09:59.045Z,98781.91
2023-05-12T22:12:25.434Z,98774.13
2023-05-12T22:14:52.214Z,98776.81
2023-05-12T22:17:19.832Z,98774.13
2023-05-12T22:19:46.264Z,98776.00
2023-05-12T22:22:14.551Z,98774.13
2023-05-12T22:24:40.885Z,98774.13
2023-05-12T22:27:08.361Z,98776.00
2023-05-12T22:29:34.677Z,98777.06
2023-05-12T22:32:05.480Z,98781.34
2023-05-12T22:34:32.838Z,98780.53
2023-05-12T22:37:00.462Z,98773.59
2023-05-12T22:39:28.107Z,98778.94
2023-05-12T22:41:54.995Z,98780.78
2023-05-12T22:44:21.544Z,98785.56
2023-05-12T22:46:50.221Z,98782.66
2023-05-12T22:49:17.110Z,98788.00
2023-05-12T22:51:44.690Z,98787.41
2023-05-12T22:54:12.554Z,98787.19
2023-05-12T22:56:39.164Z,98781.06
2023-05-12T22:59:05.690Z,98783.72
2023-05-12T23:01:32.291Z,98785.56
2023-05-12T23:03:59.405Z,98784.75
2023-05-12T23:06:30.173Z,98777.81
2023-05-12T23:08:57.876Z,98780.75
2023-05-12T23:11:26.055Z,98779.16
2023-05-12T23:13:52.805Z,98784.22
2023-05-12T23:16:21.452Z,98774.63
2023-05-12T23:18:47.889Z,98770.31
2023-05-12T23:21:16.327Z,98773.25
2023-05-12T23:23:44.869Z,98769.78
2023-05-12T23:26:11.465Z,98774.03
2023-05-12T23:28:37.839Z,98770.56
2023-05-12T23:31:04.142Z,98784.16
2023-05-12T23:33:31.177Z,98776.16
2023-05-12T23:36:02.613Z,98773.50
2023-05-12T23:38:29.258Z,98778.03
2023-05-12T23:40:55.913Z,98768.41
2023-05-12T23:43:22.506Z,98772.69
2023-05-12T23:45:51.449Z,98763.91
2023-05-12T23:48:17.795Z,98766.56
2023-05-12T23:50:44.316Z,98777.22
2023-05-12T23:53:10.984Z,98775.38
2023-05-12T23:55:37.489Z,98766.56
2023-05-12T23:58:03.795Z,98766.56
